createdAt,value
2017-04-23T00:00:58.255Z,33.87
2017-04-23T00:01:59.023Z,39.33
2017-04-23T00:02:59.091Z,34.72
2017-04-23T00:03:59.197Z,37.32
2017-04-23T00:05:00.280Z,37.87
2017-04-23T00:06:00.244Z,34.10
2017-04-23T00:07:00.278Z,34.62
2017-04-23T00:08:00.269Z,31.17
2017-04-23T00:09:00.242Z,33.18
2017-04-23T00:10:00.542Z,30.57
2017-04-23T00:11:00.559Z,31.80
2017-04-23T00:12:00.592Z,36.83
2017-04-23T00:13:00.618Z,36.18
2017-04-23T00:14:00.679Z,36.38
2017-04-23T00:15:01.809Z,34.40
2017-04-23T00:16:01.808Z,34.63
2017-04-23T00:17:01.770Z,31.10
2017-04-23T00:18:01.770Z,33.42
2017-04-23T00:19:01.779Z,33.42
2017-04-23T00:20:02.228Z,31.15
2017-04-23T00:21:02.243Z,40.93
2017-04-23T00:22:02.222Z,37.90
2017-04-23T00:23:02.234Z,34.92
2017-04-23T00:24:02.283Z,28.25
2017-04-23T00:25:03.401Z,36.53
2017-04-23T00:26:03.515Z,29.80
2017-04-23T00:27:03.577Z,30.18
2017-04-23T00:28:03.565Z,38.23
2017-04-23T00:29:03.569Z,41.45
2017-04-23T00:30:03.858Z,32.32
2017-04-23T00:31:04.603Z,34.20
2017-04-23T00:32:04.624Z,32.12
2017-04-23T00:33:04.648Z,31.82
2017-04-23T00:34:04.392Z,33.08
2017-04-23T00:35:04.807Z,35.18
2017-04-23T00:36:04.867Z,40.45
2017-04-23T00:37:04.932Z,32.85
2017-04-23T00:38:05.762Z,35.40
2017-04-23T00:39:06.556Z,33.65
2017-04-23T00:40:06.966Z,41.55
2017-04-23T00:41:06.970Z,32.28
2017-04-23T00:42:06.912Z,28.48
2017-04-23T00:43:07.605Z,34.50
2017-04-23T00:44:07.629Z,29.87
2017-04-23T00:45:08.650Z,43.32
2017-04-23T00:46:09.255Z,30.08
2017-04-23T00:47:09.252Z,36.92
2017-04-23T00:48:09.405Z,39.75
2017-04-23T00:49:12.767Z,35.83
2017-04-23T00:50:13.494Z,26.63
2017-04-23T00:51:13.536Z,28.58
2017-04-23T00:52:13.534Z,32.23
2017-04-23T00:53:13.561Z,34.25
2017-04-23T00:54:13.531Z,33.88
2017-04-23T00:55:14.661Z,35.48
2017-04-23T00:56:14.624Z,38.40
2017-04-23T00:57:14.607Z,33.93
2017-04-23T00:58:14.626Z,25.62
2017-04-23T00:59:14.574Z,29.28
2017-04-23T01:00:14.971Z,29.67
2017-04-23T01:01:14.969Z,32.18
2017-04-23T01:02:14.987Z,35.12
2017-04-23T01:03:15.023Z,27.38
2017-04-23T01:04:15.685Z,33.27
2017-04-23T01:05:16.027Z,29.37
2017-04-23T01:06:15.964Z,29.82
2017-04-23T01:07:16.673Z,28.88
2017-04-23T01:08:17.429Z,28.20
2017-04-23T01:09:17.480Z,32.95
2017-04-23T01:10:17.855Z,31.33
2017-04-23T01:11:17.863Z,31.25
2017-04-23T01:12:17.848Z,28.00
2017-04-23T01:13:18.629Z,30.28
2017-04-23T01:14:18.622Z,33.85
2017-04-23T01:15:18.959Z,31.95
2017-04-23T01:16:18.937Z,33.52
2017-04-23T01:17:18.925Z,28.88
2017-04-23T01:18:18.891Z,34.63
2017-04-23T01:19:18.925Z,31.50
2017-04-23T01:20:19.299Z,29.93
2017-04-23T01:21:19.272Z,32.07
2017-04-23T01:22:19.325Z,34.12
2017-04-23T01:23:26.128Z,35.43
2017-04-23T01:24:26.885Z,29.67
2017-04-23T01:25:27.217Z,27.88
2017-04-23T01:26:27.210Z,30.65
2017-04-23T01:27:27.237Z,37.33
2017-04-23T01:28:27.214Z,38.45
2017-04-23T01:29:27.252Z,37.25
2017-04-23T01:30:28.376Z,29.80
2017-04-23T01:31:28.435Z,28.45
2017-04-23T01:32:28.437Z,31.47
2017-04-23T01:33:28.401Z,28.88
2017-04-23T01:34:28.388Z,33.08
2017-04-23T01:35:28.678Z,37.07
2017-04-23T01:36:28.655Z,34.42
2017-04-23T01:37:28.690Z,30.52
2017-04-23T01:38:28.789Z,31.62
2017-04-23T01:39:28.641Z,33.32
2017-04-23T01:40:29.756Z,31.57
2017-04-23T01:41:29.707Z,33.37
2017-04-23T01:42:29.670Z,33.67
2017-04-23T01:43:29.685Z,31.92
2017-04-23T01:44:29.661Z,33.32
2017-04-23T01:45:30.106Z,48.27
2017-04-23T01:46:30.095Z,32.43
2017-04-23T01:47:30.119Z,34.92
2017-04-23T01:48:30.091Z,31.58
2017-04-23T01:49:30.078Z,29.92
2017-04-23T01:50:30.438Z,38.13
2017-04-23T01:51:30.621Z,31.47
2017-04-23T01:52:30.586Z,36.80
2017-04-23T01:53:32.102Z,37.43
2017-04-23T01:54:32.230Z,36.03
2017-04-23T01:55:33.238Z,35.32
2017-04-23T01:56:33.230Z,31.67
2017-04-23T01:57:33.363Z,33.78
2017-04-23T01:58:34.142Z,35.90
2017-04-23T01:59:34.129Z,33.52
2017-04-23T02:00:34.601Z,39.22
2017-04-23T02:01:34.614Z,31.50
2017-04-23T02:02:34.722Z,35.45
2017-04-23T02:03:34.650Z,33.12
2017-04-23T02:04:34.766Z,31.17
2017-04-23T02:05:35.251Z,28.90
2017-04-23T02:06:35.302Z,30.38
2017-04-23T02:07:36.008Z,32.47
2017-04-23T02:08:35.984Z,32.13
2017-04-23T02:09:36.724Z,30.28
2017-04-23T02:10:37.231Z,31.50
2017-04-23T02:11:37.877Z,36.07
2017-04-23T02:12:37.884Z,26.28
2017-04-23T02:13:37.901Z,30.58
2017-04-23T02:14:37.928Z,33.02
2017-04-23T02:15:37.989Z,30.20
2017-04-23T02:16:38.749Z,31.18
2017-04-23T02:17:38.794Z,31.87
2017-04-23T02:18:38.762Z,28.55
2017-04-23T02:19:38.746Z,30.87
2017-04-23T02:20:39.116Z,31.62
2017-04-23T02:21:39.080Z,33.55
2017-04-23T02:22:39.048Z,31.22
2017-04-23T02:23:39.533Z,33.12
2017-04-23T02:24:40.273Z,34.50
2017-04-23T02:25:40.572Z,35.53
2017-04-23T02:26:40.778Z,29.90
2017-04-23T02:27:40.698Z,36.45
2017-04-23T02:28:40.693Z,36.77
2017-04-23T02:29:40.720Z,29.97
2017-04-23T02:30:41.827Z,30.32
2017-04-23T02:31:41.822Z,33.28
2017-04-23T02:32:41.795Z,32.63
2017-04-23T02:33:41.767Z,32.02
2017-04-23T02:34:41.743Z,28.20
2017-04-23T02:35:42.094Z,31.73
2017-04-23T02:36:42.869Z,35.77
2017-04-23T02:37:42.858Z,28.48
2017-04-23T02:38:42.648Z,35.50
2017-04-23T02:39:42.654Z,30.43
2017-04-23T02:40:42.919Z,35.08
2017-04-23T02:41:49.602Z,32.23
2017-04-23T02:42:50.319Z,28.83
2017-04-23T02:43:50.412Z,30.85
2017-04-23T02:44:50.379Z,30.25
2017-04-23T02:45:50.705Z,24.90
2017-04-23T02:46:50.767Z,33.37
2017-04-23T02:47:51.469Z,28.93
2017-04-23T02:48:51.451Z,33.23
2017-04-23T02:49:51.394Z,34.22
2017-04-23T02:50:52.508Z,33.32
2017-04-23T02:51:52.479Z,31.92
2017-04-23T02:52:52.454Z,27.18
2017-04-23T02:53:52.478Z,37.05
2017-04-23T02:54:52.443Z,29.82
2017-04-23T02:55:53.286Z,34.15
2017-04-23T02:56:53.343Z,29.42
2017-04-23T02:57:53.360Z,34.33
2017-04-23T02:58:53.374Z,35.90
2017-04-23T02:59:53.426Z,29.47
2017-04-23T03:00:53.522Z,31.92
2017-04-23T03:01:53.535Z,29.65
2017-04-23T03:02:53.524Z,30.85
2017-04-23T03:03:54.260Z,26.67
2017-04-23T03:04:54.223Z,28.17
2017-04-23T03:05:54.648Z,33.07
2017-04-23T03:06:54.641Z,36.42
2017-04-23T03:07:54.704Z,36.47
2017-04-23T03:08:54.781Z,29.05
2017-04-23T03:09:54.767Z,33.87
2017-04-23T03:10:55.200Z,36.65
2017-04-23T03:11:55.302Z,31.42
2017-04-23T03:12:55.271Z,31.75
2017-04-23T03:13:55.304Z,34.73
2017-04-23T03:14:55.474Z,28.43
2017-04-23T03:15:55.714Z,34.77
2017-04-23T03:16:55.703Z,29.43
2017-04-23T03:17:55.661Z,31.83
2017-04-23T03:18:56.360Z,34.98
2017-04-23T03:19:56.343Z,35.88
2017-04-23T03:20:56.678Z,36.43
2017-04-23T03:21:56.730Z,32.22
2017-04-23T03:22:56.748Z,35.22
2017-04-23T03:23:56.958Z,39.87
2017-04-23T03:24:56.938Z,29.43
2017-04-23T03:25:58.043Z,32.52
2017-04-23T03:26:58.029Z,32.47
2017-04-23T03:27:58.803Z,32.00
2017-04-23T03:28:59.535Z,38.72
2017-04-23T03:29:59.523Z,33.52
2017-04-23T03:31:00.689Z,33.03
2017-04-23T03:32:00.653Z,38.13
2017-04-23T03:33:00.668Z,36.98
2017-04-23T03:34:01.659Z,40.02
2017-04-23T03:35:01.862Z,34.38
2017-04-23T03:36:02.192Z,37.08
2017-04-23T03:37:02.190Z,33.80
2017-04-23T03:38:02.121Z,42.15
2017-04-23T03:39:02.087Z,35.70
2017-04-23T03:40:02.018Z,38.50
2017-04-23T03:41:02.336Z,37.93
2017-04-23T03:42:03.103Z,35.10
2017-04-23T03:43:03.070Z,30.42
2017-04-23T03:44:03.081Z,40.03
2017-04-23T03:45:03.864Z,31.50
2017-04-23T03:46:04.120Z,32.10
2017-04-23T03:47:05.523Z,36.32
2017-04-23T03:48:05.659Z,32.23
2017-04-23T03:49:05.674Z,31.47
2017-04-23T03:50:06.418Z,32.58
2017-04-23T03:51:07.483Z,33.65
2017-04-23T03:52:07.499Z,40.15
2017-04-23T03:53:07.504Z,37.62
2017-04-23T03:54:07.569Z,36.25
2017-04-23T03:55:07.555Z,32.88
2017-04-23T03:56:08.394Z,39.82
2017-04-23T03:57:08.318Z,40.35
2017-04-23T03:58:08.280Z,35.98
2017-04-23T03:59:08.297Z,37.20
2017-04-23T04:00:08.739Z,31.80
2017-04-23T04:01:09.113Z,35.37
2017-04-23T04:02:09.186Z,34.22
2017-04-23T04:03:09.157Z,38.35
2017-04-23T04:04:09.163Z,35.32
2017-04-23T04:05:09.905Z,33.07
2017-04-23T04:06:10.483Z,33.97
2017-04-23T04:07:10.191Z,30.18
2017-04-23T04:08:10.325Z,40.73
2017-04-23T04:09:10.384Z,37.58
2017-04-23T04:10:10.390Z,36.78
2017-04-23T04:11:10.700Z,35.27
2017-04-23T04:12:10.738Z,32.73
2017-04-23T04:13:11.403Z,33.18
2017-04-23T04:14:11.366Z,34.53
2017-04-23T04:15:12.110Z,29.43
2017-04-23T04:16:12.480Z,33.28
2017-04-23T04:17:12.518Z,35.33
2017-04-23T04:18:12.510Z,32.70
2017-04-23T04:19:13.230Z,36.92
2017-04-23T04:20:14.021Z,35.98
2017-04-23T04:21:14.454Z,28.90
2017-04-23T04:22:14.397Z,39.80
2017-04-23T04:23:14.339Z,32.93
2017-04-23T04:24:14.377Z,33.98
2017-04-23T04:25:14.372Z,29.78
2017-04-23T04:26:14.803Z,31.42
2017-04-23T04:27:14.757Z,35.32
2017-04-23T04:28:14.730Z,36.45
2017-04-23T04:29:15.443Z,35.93
2017-04-23T04:30:16.142Z,31.37
2017-04-23T04:31:16.466Z,27.87
2017-04-23T04:32:16.444Z,35.57
2017-04-23T04:33:16.436Z,30.08
2017-04-23T04:34:16.498Z,37.05
2017-04-23T04:35:17.253Z,37.93
2017-04-23T04:36:17.519Z,34.10
2017-04-23T04:37:17.560Z,34.67
2017-04-23T04:38:17.523Z,36.62
2017-04-23T04:39:17.513Z,30.77
2017-04-23T04:40:17.533Z,34.90
2017-04-23T04:41:17.846Z,34.32
2017-04-23T04:42:17.874Z,45.50
2017-04-23T04:43:18.615Z,32.92
2017-04-23T04:44:18.711Z,38.88
2017-04-23T04:45:18.708Z,57.17
2017-04-23T04:46:19.016Z,43.72
2017-04-23T04:47:19.014Z,36.32
2017-04-23T04:48:19.040Z,32.23
2017-04-23T04:49:19.720Z,31.50
2017-04-23T04:50:19.770Z,33.67
2017-04-23T04:51:20.892Z,29.98
2017-04-23T04:52:20.863Z,35.35
2017-04-23T04:53:20.815Z,27.22
2017-04-23T04:54:21.526Z,27.42
2017-04-23T04:55:22.262Z,28.33
2017-04-23T04:56:23.273Z,24.92
2017-04-23T04:57:23.204Z,23.05
2017-04-23T04:58:23.899Z,24.77
2017-04-23T04:59:23.827Z,24.82
2017-04-23T05:00:24.580Z,24.85
2017-04-23T05:01:24.898Z,23.23
2017-04-23T05:02:24.901Z,22.48
2017-04-23T05:03:24.963Z,28.38
2017-04-23T05:04:25.686Z,23.93
2017-04-23T05:05:26.486Z,25.00
2017-04-23T05:06:26.806Z,23.35
2017-04-23T05:07:26.772Z,25.33
2017-04-23T05:08:26.764Z,23.08
2017-04-23T05:09:26.799Z,28.42
2017-04-23T05:10:26.734Z,20.50
2017-04-23T05:11:27.033Z,29.08
2017-04-23T05:12:26.982Z,26.52
2017-04-23T05:13:26.963Z,30.03
2017-04-23T05:14:26.691Z,37.65
2017-04-23T05:15:30.098Z,26.77
2017-04-23T05:16:30.340Z,31.25
2017-04-23T05:17:30.335Z,30.23
2017-04-23T05:18:30.301Z,24.05
2017-04-23T05:19:30.286Z,30.32
2017-04-23T05:20:30.968Z,32.82
2017-04-23T05:21:31.304Z,25.12
2017-04-23T05:22:31.299Z,33.68
2017-04-23T05:23:31.250Z,25.17
2017-04-23T05:24:31.258Z,26.85
2017-04-23T05:25:31.213Z,27.78
2017-04-23T05:26:31.575Z,29.30
2017-04-23T05:27:31.373Z,30.98
2017-04-23T05:28:32.066Z,26.75
2017-04-23T05:29:32.052Z,28.95
2017-04-23T05:30:32.056Z,27.53
2017-04-23T05:31:32.398Z,29.60
2017-04-23T05:32:32.976Z,29.78
2017-04-23T05:33:33.259Z,24.52
2017-04-23T05:34:33.295Z,27.27
2017-04-23T05:35:33.344Z,28.98
2017-04-23T05:36:33.648Z,33.22
2017-04-23T05:37:33.678Z,29.65
2017-04-23T05:38:34.429Z,28.05
2017-04-23T05:39:34.465Z,27.95
2017-04-23T05:40:34.448Z,29.35
2017-04-23T05:41:34.788Z,34.75
2017-04-23T05:42:34.821Z,31.52
2017-04-23T05:43:34.770Z,30.35
2017-04-23T05:44:34.724Z,31.38
2017-04-23T05:45:34.716Z,29.08
2017-04-23T05:46:35.028Z,30.85
2017-04-23T05:47:34.950Z,36.13
2017-04-23T05:48:35.290Z,27.95
2017-04-23T05:49:35.222Z,29.47
2017-04-23T05:50:35.197Z,35.20
2017-04-23T05:51:35.479Z,35.22
2017-04-23T05:52:35.404Z,30.83
2017-04-23T05:53:36.098Z,25.27
2017-04-23T05:54:36.031Z,27.50
2017-04-23T05:55:36.718Z,33.42
2017-04-23T05:56:36.736Z,33.15
2017-04-23T05:57:36.755Z,35.57
2017-04-23T05:58:36.750Z,38.32
2017-04-23T05:59:36.735Z,33.40
2017-04-23T06:00:36.746Z,29.17
2017-04-23T06:01:37.085Z,39.13
2017-04-23T06:02:37.039Z,35.70
2017-04-23T06:03:37.815Z,32.98
2017-04-23T06:04:37.524Z,38.42
2017-04-23T06:05:37.732Z,33.18
2017-04-23T06:06:38.733Z,31.92
2017-04-23T06:07:38.704Z,41.85
2017-04-23T06:08:38.730Z,34.32
2017-04-23T06:09:38.719Z,29.95
2017-04-23T06:10:38.753Z,30.93
2017-04-23T06:11:39.045Z,33.07
2017-04-23T06:12:39.056Z,28.53
2017-04-23T06:13:39.111Z,32.35
2017-04-23T06:14:39.651Z,34.03
2017-04-23T06:15:39.631Z,32.18
2017-04-23T06:16:40.743Z,31.48
2017-04-23T06:17:40.731Z,36.50
2017-04-23T06:18:40.690Z,32.22
2017-04-23T06:19:41.677Z,31.50
2017-04-23T06:20:41.835Z,32.82
2017-04-23T06:21:42.214Z,31.00
2017-04-23T06:22:42.997Z,33.47
2017-04-23T06:23:42.998Z,33.62
2017-04-23T06:24:43.245Z,32.67
2017-04-23T06:25:43.207Z,37.08
2017-04-23T06:26:43.598Z,38.50
2017-04-23T06:27:44.535Z,36.78
2017-04-23T06:28:44.542Z,42.38
2017-04-23T06:29:45.273Z,33.40
2017-04-23T06:30:45.240Z,35.18
2017-04-23T06:31:45.589Z,36.20
2017-04-23T06:32:45.590Z,37.65
2017-04-23T06:33:46.318Z,32.47
2017-04-23T06:34:46.365Z,34.58
2017-04-23T06:35:46.121Z,28.82
2017-04-23T06:36:47.154Z,34.78
2017-04-23T06:37:47.483Z,34.50
2017-04-23T06:38:47.263Z,39.40
2017-04-23T06:39:48.003Z,33.47
2017-04-23T06:40:48.023Z,39.30
2017-04-23T06:41:48.493Z,41.02
2017-04-23T06:42:48.448Z,34.47
2017-04-23T06:43:48.437Z,36.78
2017-04-23T06:44:48.401Z,33.75
2017-04-23T06:45:48.115Z,32.87
2017-04-23T06:46:49.335Z,34.07
2017-04-23T06:47:49.308Z,41.00
2017-04-23T06:48:49.348Z,42.90
2017-04-23T06:49:49.348Z,41.78
2017-04-23T06:50:49.644Z,33.42
2017-04-23T06:51:49.995Z,37.83
2017-04-23T06:52:50.697Z,30.80
2017-04-23T06:53:50.659Z,34.47
2017-04-23T06:54:50.694Z,37.92
2017-04-23T06:55:50.756Z,35.88
2017-04-23T06:56:51.128Z,43.32
2017-04-23T06:57:51.168Z,39.05
2017-04-23T06:58:51.881Z,34.92
2017-04-23T06:59:52.407Z,36.20
2017-04-23T07:00:52.466Z,35.17
2017-04-23T07:01:52.829Z,36.07
2017-04-23T07:02:53.636Z,33.88
2017-04-23T07:03:53.634Z,37.43
2017-04-23T07:04:53.609Z,35.18
2017-04-23T07:05:53.579Z,32.57
2017-04-23T07:06:53.943Z,36.55
2017-04-23T07:07:53.942Z,35.42
2017-04-23T07:08:53.891Z,39.67
2017-04-23T07:09:54.672Z,31.82
2017-04-23T07:10:54.744Z,33.52
2017-04-23T07:11:55.082Z,38.10
2017-04-23T07:12:55.050Z,36.80
2017-04-23T07:13:55.056Z,40.82
2017-04-23T07:14:55.160Z,32.00
2017-04-23T07:15:55.935Z,37.82
2017-04-23T07:16:56.200Z,38.25
2017-04-23T07:17:56.233Z,36.80
2017-04-23T07:18:56.257Z,31.75
2017-04-23T07:19:56.213Z,35.85
2017-04-23T07:20:56.912Z,38.67
2017-04-23T07:21:57.223Z,32.85
2017-04-23T07:22:57.224Z,41.68
2017-04-23T07:23:57.253Z,36.30
2017-04-23T07:24:58.030Z,30.98
2017-04-23T07:25:57.965Z,33.23
2017-04-23T07:26:58.260Z,33.78
2017-04-23T07:27:58.238Z,34.07
2017-04-23T07:28:58.208Z,50.27
2017-04-23T07:29:58.908Z,32.97
2017-04-23T07:30:58.891Z,33.57
2017-04-23T07:31:59.221Z,32.07
2017-04-23T07:32:59.002Z,36.67
2017-04-23T07:33:59.046Z,26.13
2017-04-23T07:34:59.015Z,32.12
2017-04-23T07:35:59.034Z,29.92
2017-04-23T07:36:59.560Z,28.12
2017-04-23T07:37:59.489Z,32.68
2017-04-23T07:39:00.187Z,37.80
2017-04-23T07:40:00.166Z,32.13
2017-04-23T07:41:00.177Z,30.13
2017-04-23T07:42:00.403Z,35.23
2017-04-23T07:43:00.619Z,33.45
2017-04-23T07:44:00.484Z,34.88
2017-04-23T07:45:00.397Z,38.17
2017-04-23T07:46:00.357Z,37.72
2017-04-23T07:47:01.387Z,32.80
2017-04-23T07:48:02.098Z,25.28
2017-04-23T07:49:02.112Z,36.00
2017-04-23T07:50:02.845Z,37.03
2017-04-23T07:51:03.554Z,33.98
2017-04-23T07:52:03.871Z,30.03
2017-04-23T07:53:04.643Z,28.57
2017-04-23T07:54:04.645Z,27.98
2017-04-23T07:55:04.615Z,31.40
2017-04-23T07:56:05.411Z,30.12
2017-04-23T07:57:05.747Z,24.68
2017-04-23T07:58:06.528Z,27.17
2017-04-23T07:59:06.568Z,26.43
2017-04-23T08:00:06.400Z,23.57
2017-04-23T08:01:06.476Z,24.55
2017-04-23T08:02:06.795Z,26.37
2017-04-23T08:03:07.437Z,32.70
2017-04-23T08:04:07.476Z,30.02
2017-04-23T08:05:08.637Z,25.07
2017-04-23T08:06:08.567Z,23.15
2017-04-23T08:07:09.660Z,29.63
2017-04-23T08:08:09.614Z,30.10
2017-04-23T08:09:10.346Z,24.90
2017-04-23T08:10:10.444Z,22.93
2017-04-23T08:11:10.987Z,26.62
2017-04-23T08:12:11.155Z,24.10
2017-04-23T08:13:11.700Z,20.13
2017-04-23T08:14:11.670Z,27.08
2017-04-23T08:15:11.687Z,25.32
2017-04-23T08:16:11.842Z,28.37
2017-04-23T08:17:12.306Z,29.28
2017-04-23T08:18:12.302Z,25.25
2017-04-23T08:19:12.294Z,28.77
2017-04-23T08:20:12.305Z,29.65
2017-04-23T08:21:12.292Z,23.32
2017-04-23T08:22:12.663Z,26.92
2017-04-23T08:23:13.417Z,27.52
2017-04-23T08:24:13.506Z,27.40
2017-04-23T08:25:13.518Z,26.10
2017-04-23T08:26:13.484Z,25.80
2017-04-23T08:27:13.886Z,24.87
2017-04-23T08:28:13.888Z,32.42
2017-04-23T08:29:14.637Z,29.37
2017-04-23T08:30:14.612Z,25.65
2017-04-23T08:31:14.501Z,27.10
2017-04-23T08:32:14.750Z,27.88
2017-04-23T08:33:14.735Z,27.77
2017-04-23T08:34:14.985Z,29.25
2017-04-23T08:35:15.708Z,22.63
2017-04-23T08:36:16.141Z,24.45
2017-04-23T08:37:16.157Z,24.55
2017-04-23T08:38:16.195Z,27.90
2017-04-23T08:39:16.232Z,26.07
2017-04-23T08:40:16.987Z,24.52
2017-04-23T08:41:16.812Z,28.38
2017-04-23T08:42:17.209Z,26.92
2017-04-23T08:43:17.249Z,32.77
2017-04-23T08:44:17.213Z,21.88
2017-04-23T08:45:17.189Z,33.37
2017-04-23T08:46:17.174Z,30.32
2017-04-23T08:47:17.579Z,24.27
2017-04-23T08:48:17.535Z,28.67
2017-04-23T08:49:18.393Z,21.90
2017-04-23T08:50:18.426Z,19.92
2017-04-23T08:51:18.390Z,23.27
2017-04-23T08:52:18.759Z,21.53
2017-04-23T08:53:18.787Z,28.12
2017-04-23T08:54:19.706Z,18.52
2017-04-23T08:55:20.482Z,25.12
2017-04-23T08:56:20.534Z,25.88
2017-04-23T08:57:21.571Z,19.50
2017-04-23T08:58:22.259Z,30.02
2017-04-23T08:59:22.227Z,21.83
2017-04-23T09:00:22.213Z,23.05
2017-04-23T09:01:22.245Z,21.42
2017-04-23T09:02:22.544Z,18.97
2017-04-23T09:03:22.610Z,23.53
2017-04-23T09:04:22.588Z,26.62
2017-04-23T09:05:22.556Z,16.72
2017-04-23T09:06:23.081Z,18.58
2017-04-23T09:07:23.475Z,16.15
2017-04-23T09:08:24.301Z,21.97
2017-04-23T09:09:25.043Z,17.33
2017-04-23T09:10:25.590Z,19.07
2017-04-23T09:11:25.552Z,16.28
2017-04-23T09:12:26.538Z,19.27
2017-04-23T09:13:26.490Z,29.65
2017-04-23T09:14:27.251Z,20.38
2017-04-23T09:15:27.293Z,21.17
2017-04-23T09:16:27.291Z,19.87
2017-04-23T09:17:27.600Z,20.62
2017-04-23T09:18:28.279Z,18.60
2017-04-23T09:19:28.226Z,25.38
2017-04-23T09:20:28.934Z,26.73
2017-04-23T09:21:28.993Z,21.85
2017-04-23T09:22:29.720Z,20.00
2017-04-23T09:23:30.238Z,29.42
2017-04-23T09:24:30.954Z,17.48
2017-04-23T09:25:31.783Z,21.45
2017-04-23T09:26:32.492Z,21.87
2017-04-23T09:27:34.524Z,22.37
2017-04-23T09:28:34.510Z,25.70
2017-04-23T09:29:34.257Z,25.32
2017-04-23T09:30:34.275Z,16.57
2017-04-23T09:31:34.995Z,29.47
2017-04-23T09:32:36.094Z,20.73
2017-04-23T09:33:36.121Z,20.92
2017-04-23T09:34:36.870Z,19.93
2017-04-23T09:35:36.840Z,18.32
2017-04-23T09:36:36.776Z,20.45
2017-04-23T09:37:37.164Z,15.18
2017-04-23T09:38:37.905Z,19.00
2017-04-23T09:39:38.595Z,21.53
2017-04-23T09:40:38.587Z,20.02
2017-04-23T09:41:38.608Z,21.92
2017-04-23T09:42:38.878Z,19.25
2017-04-23T09:43:38.887Z,18.87
2017-04-23T09:44:38.896Z,19.13
2017-04-23T09:45:38.932Z,17.18
2017-04-23T09:46:38.880Z,17.48
2017-04-23T09:47:39.880Z,21.48
2017-04-23T09:48:39.823Z,25.30
2017-04-23T09:49:39.746Z,23.02
2017-04-23T09:50:39.747Z,23.85
2017-04-23T09:51:39.718Z,16.13
2017-04-23T09:52:40.152Z,15.78
2017-04-23T09:53:40.183Z,16.47
2017-04-23T09:54:40.111Z,29.15
2017-04-23T09:55:40.061Z,21.07
2017-04-23T09:56:40.159Z,20.53
2017-04-23T09:57:41.522Z,17.83
2017-04-23T09:58:41.512Z,21.22
2017-04-23T09:59:42.278Z,18.98
2017-04-23T10:00:42.359Z,20.75
2017-04-23T10:01:42.354Z,16.28
2017-04-23T10:02:42.735Z,19.22
2017-04-23T10:03:42.804Z,17.10
2017-04-23T10:04:43.295Z,18.07
2017-04-23T10:05:43.249Z,16.17
2017-04-23T10:06:43.210Z,17.57
2017-04-23T10:07:43.601Z,15.85
2017-04-23T10:08:44.367Z,18.12
2017-04-23T10:09:44.368Z,16.83
2017-04-23T10:10:44.375Z,20.20
2017-04-23T10:11:44.329Z,15.92
2017-04-23T10:12:44.649Z,18.32
2017-04-23T10:13:44.636Z,19.97
2017-04-23T10:14:44.672Z,19.25
2017-04-23T10:15:45.389Z,16.88
2017-04-23T10:16:46.077Z,18.90
2017-04-23T10:17:46.522Z,17.32
2017-04-23T10:18:47.292Z,12.83
2017-04-23T10:19:47.279Z,13.62
2017-04-23T10:20:47.255Z,18.73
2017-04-23T10:21:47.165Z,21.67
2017-04-23T10:22:47.565Z,18.35
2017-04-23T10:23:47.545Z,22.92
2017-04-23T10:24:48.123Z,13.63
2017-04-23T10:25:47.924Z,13.10
2017-04-23T10:26:47.864Z,18.57
2017-04-23T10:27:48.211Z,18.20
2017-04-23T10:28:48.222Z,13.82
2017-04-23T10:29:48.176Z,20.95
2017-04-23T10:30:48.209Z,14.65
2017-04-23T10:31:48.177Z,16.27
2017-04-23T10:32:48.484Z,17.00
2017-04-23T10:33:48.504Z,22.22
2017-04-23T10:34:48.588Z,15.47
2017-04-23T10:35:49.353Z,17.90
2017-04-23T10:36:49.345Z,17.63
2017-04-23T10:37:49.719Z,17.47
2017-04-23T10:38:49.755Z,15.75
2017-04-23T10:39:49.739Z,16.37
2017-04-23T10:40:49.739Z,20.53
2017-04-23T10:41:50.496Z,19.83
2017-04-23T10:42:50.782Z,22.60
2017-04-23T10:43:50.806Z,21.12
2017-04-23T10:44:50.782Z,16.08
2017-04-23T10:45:50.790Z,15.20
2017-04-23T10:46:50.833Z,17.12
2017-04-23T10:47:51.199Z,28.47
2017-04-23T10:48:51.648Z,15.93
2017-04-23T10:49:52.360Z,14.35
2017-04-23T10:50:53.122Z,22.48
2017-04-23T10:51:53.129Z,18.53
2017-04-23T10:52:53.491Z,19.37
2017-04-23T10:53:53.522Z,20.47
2017-04-23T10:54:53.519Z,18.43
2017-04-23T10:55:54.277Z,16.30
2017-04-23T10:56:54.259Z,15.38
2017-04-23T10:57:54.628Z,18.43
2017-04-23T10:58:54.605Z,30.00
2017-04-23T10:59:54.500Z,19.07
2017-04-23T11:00:54.623Z,17.68
2017-04-23T11:01:54.613Z,19.95
2017-04-23T11:02:54.903Z,19.08
2017-04-23T11:03:55.633Z,21.05
2017-04-23T11:04:55.629Z,21.23
2017-04-23T11:05:56.387Z,17.22
2017-04-23T11:06:56.158Z,19.42
2017-04-23T11:07:56.502Z,17.18
2017-04-23T11:08:56.616Z,16.77
2017-04-23T11:09:56.636Z,20.38
2017-04-23T11:10:56.624Z,16.77
2017-04-23T11:11:56.702Z,22.25
2017-04-23T11:12:57.815Z,21.60
2017-04-23T11:13:57.834Z,20.43
2017-04-23T11:14:57.564Z,24.65
2017-04-23T11:15:57.439Z,17.35
2017-04-23T11:16:58.130Z,22.00
2017-04-23T11:17:58.521Z,24.75
2017-04-23T11:18:58.269Z,21.28
2017-04-23T11:19:58.180Z,20.42
2017-04-23T11:20:58.171Z,26.03
2017-04-23T11:21:58.910Z,22.30
2017-04-23T11:22:59.294Z,21.55
2017-04-23T11:23:59.385Z,19.93
2017-04-23T11:24:59.375Z,18.50
2017-04-23T11:25:59.422Z,28.02
2017-04-23T11:26:59.480Z,23.57
2017-04-23T11:27:59.828Z,26.48
2017-04-23T11:28:59.803Z,16.52
2017-04-23T11:29:59.770Z,14.37
2017-04-23T11:31:00.508Z,18.03
2017-04-23T11:32:00.456Z,20.35
2017-04-23T11:33:00.790Z,18.45
2017-04-23T11:34:00.859Z,16.58
2017-04-23T11:35:00.948Z,18.47
2017-04-23T11:36:00.979Z,18.02
2017-04-23T11:37:00.984Z,21.73
2017-04-23T11:38:01.262Z,16.62
2017-04-23T11:39:01.989Z,18.78
2017-04-23T11:40:01.981Z,19.82
2017-04-23T11:41:02.678Z,22.20
2017-04-23T11:42:02.736Z,19.72
2017-04-23T11:43:02.997Z,19.23
2017-04-23T11:44:03.139Z,18.47
2017-04-23T11:45:03.901Z,23.77
2017-04-23T11:46:03.933Z,19.17
2017-04-23T11:47:03.943Z,22.47
2017-04-23T11:48:04.249Z,19.42
2017-04-23T11:49:04.260Z,19.37
2017-04-23T11:50:04.312Z,23.12
2017-04-23T11:51:04.350Z,18.75
2017-04-23T11:52:04.431Z,17.55
2017-04-23T11:53:04.822Z,15.65
2017-04-23T11:54:06.163Z,23.75
2017-04-23T11:55:06.876Z,20.45
2017-04-23T11:56:07.644Z,25.05
2017-04-23T11:57:07.598Z,25.65
2017-04-23T11:58:07.999Z,32.47
2017-04-23T11:59:08.073Z,20.05
2017-04-23T12:00:08.042Z,21.78
2017-04-23T12:01:08.071Z,21.73
2017-04-23T12:02:08.053Z,17.93
2017-04-23T12:03:08.492Z,20.65
2017-04-23T12:04:08.479Z,22.05
2017-04-23T12:05:08.470Z,19.87
2017-04-23T12:06:09.315Z,22.83
2017-04-23T12:07:09.397Z,21.53
2017-04-23T12:08:10.521Z,20.55
2017-04-23T12:09:10.510Z,25.42
2017-04-23T12:10:10.547Z,23.40
2017-04-23T12:11:10.570Z,23.55
2017-04-23T12:12:11.298Z,20.97
2017-04-23T12:13:11.712Z,27.98
2017-04-23T12:14:12.450Z,18.28
2017-04-23T12:15:12.497Z,24.83
2017-04-23T12:16:12.519Z,22.37
2017-04-23T12:17:12.611Z,19.82
2017-04-23T12:18:13.058Z,22.93
2017-04-23T12:19:13.826Z,22.30
2017-04-23T12:20:13.897Z,19.55
2017-04-23T12:21:14.666Z,21.97
2017-04-23T12:22:14.795Z,24.90
2017-04-23T12:23:15.105Z,23.93
2017-04-23T12:24:14.951Z,21.13
2017-04-23T12:25:14.899Z,24.35
2017-04-23T12:26:15.000Z,19.12
2017-04-23T12:27:15.358Z,17.77
2017-04-23T12:28:15.788Z,15.03
2017-04-23T12:29:16.277Z,19.85
2017-04-23T12:30:17.144Z,20.72
2017-04-23T12:31:17.157Z,25.42
2017-04-23T12:32:17.165Z,17.25
2017-04-23T12:33:17.571Z,18.57
2017-04-23T12:34:17.611Z,19.57
2017-04-23T12:35:17.680Z,20.33
2017-04-23T12:36:17.779Z,22.30
2017-04-23T12:37:18.613Z,18.63
2017-04-23T12:38:19.566Z,23.12
2017-04-23T12:39:19.609Z,20.68
2017-04-23T12:40:19.490Z,23.57
2017-04-23T12:41:19.569Z,19.48
2017-04-23T12:42:19.629Z,23.75
2017-04-23T12:43:20.072Z,20.35
2017-04-23T12:44:20.926Z,21.17
2017-04-23T12:45:20.940Z,19.97
2017-04-23T12:46:20.967Z,22.50
2017-04-23T12:47:21.746Z,20.27
2017-04-23T12:48:22.219Z,24.53
2017-04-23T12:49:23.049Z,19.12
2017-04-23T12:50:23.034Z,20.87
2017-04-23T12:51:23.069Z,21.02
2017-04-23T12:52:23.133Z,19.65
2017-04-23T12:53:24.489Z,20.57
2017-04-23T12:54:24.449Z,17.17
2017-04-23T12:55:25.287Z,23.72
2017-04-23T12:56:25.313Z,19.73